sensor_id;sensor_type;location;lat;lon;timestamp;temperature;humidity
59146;DHT22;44928;53.074;6.646;2023-05-10T00:02:10;13.60;99.90
59146;DHT22;44928;53.074;6.646;2023-05-10T00:04:35;13.60;99.90
59146;DHT22;44928;53.074;6.646;2023-05-10T00:07:01;13.60;99.90
59146;DHT22;44928;53.074;6.646;2023-05-10T00:09:27;13.50;99.90
59146;DHT22;44928;53.074;6.646;2023-05-10T00:11:53;13.50;99.90
59146;DHT22;44928;53.074;6.646;2023-05-10T00:14:19;13.30;99.90
59146;DHT22;44928;53.074;6.646;2023-05-10T00:16:45;13.40;99.90
59146;DHT22;44928;53.074;6.646;2023-05-10T00:19:10;13.30;99.90
59146;DHT22;44928;53.074;6.646;2023-05-10T00:21:36;13.30;99.90
59146;DHT22;44928;53.074;6.646;2023-05-10T00:24:02;13.30;99.90
59146;DHT22;44928;53.074;6.646;2023-05-10T00:26:28;13.20;99.90
59146;DHT22;44928;53.074;6.646;2023-05-10T00:28:54;13.30;99.90
59146;DHT22;44928;53.074;6.646;2023-05-10T00:31:19;13.20;99.90
59146;DHT22;44928;53.074;6.646;2023-05-10T00:33:45;13.20;99.90
59146;DHT22;44928;53.074;6.646;2023-05-10T00:36:11;13.20;99.90
59146;DHT22;44928;53.074;6.646;2023-05-10T00:38:37;13.20;99.90
59146;DHT22;44928;53.074;6.646;2023-05-10T00:41:03;13.20;99.90
59146;DHT22;44928;53.074;6.646;2023-05-10T01:01:54;13.10;99.90
59146;DHT22;44928;53.074;6.646;2023-05-10T01:04:19;13.10;99.90
59146;DHT22;44928;53.074;6.646;2023-05-10T01:06:53;13.10;99.90
59146;DHT22;44928;53.074;6.646;2023-05-10T01:09:21;13.10;99.90
59146;DHT22;44928;53.074;6.646;2023-05-10T01:11:47;13.10;99.90
59146;DHT22;44928;53.074;6.646;2023-05-10T01:14:15;13.10;99.90
59146;DHT22;44928;53.074;6.646;2023-05-10T01:16:44;13.10;99.90
59146;DHT22;44928;53.074;6.646;2023-05-10T01:19:18;13.10;99.90
59146;DHT22;44928;53.074;6.646;2023-05-10T01:22:12;13.10;99.90
59146;DHT22;44928;53.074;6.646;2023-05-10T01:27:30;13.10;99.90
59146;DHT22;44928;53.074;6.646;2023-05-10T01:35:43;13.10;99.90
59146;DHT22;44928;53.074;6.646;2023-05-10T01:42:06;13.10;99.90
59146;DHT22;44928;53.074;6.646;2023-05-10T01:49:45;13.00;99.90
59146;DHT22;44928;53.074;6.646;2023-05-10T01:52:18;13.00;99.90
59146;DHT22;44928;53.074;6.646;2023-05-10T01:54:55;13.00;99.90
59146;DHT22;44928;53.074;6.646;2023-05-10T01:57:22;13.00;99.90
59146;DHT22;44928;53.074;6.646;2023-05-10T01:59:51;13.00;99.90
59146;DHT22;44928;53.074;6.646;2023-05-10T02:02:20;13.00;99.90
59146;DHT22;44928;53.074;6.646;2023-05-10T02:04:47;13.00;99.90
59146;DHT22;44928;53.074;6.646;2023-05-10T02:07:14;12.90;99.90
59146;DHT22;44928;53.074;6.646;2023-05-10T02:09:42;12.90;99.90
59146;DHT22;44928;53.074;6.646;2023-05-10T02:12:09;12.90;99.90
59146;DHT22;44928;53.074;6.646;2023-05-10T02:14:37;12.90;99.90
59146;DHT22;44928;53.074;6.646;2023-05-10T02:17:05;12.90;99.90
59146;DHT22;44928;53.074;6.646;2023-05-10T02:19:34;12.90;99.90
59146;DHT22;44928;53.074;6.646;2023-05-10T02:22:01;12.80;99.90
59146;DHT22;44928;53.074;6.646;2023-05-10T02:24:29;12.80;99.90
59146;DHT22;44928;53.074;6.646;2023-05-10T02:26:55;12.80;99.90
59146;DHT22;44928;53.074;6.646;2023-05-10T02:29:23;12.80;99.90
59146;DHT22;44928;53.074;6.646;2023-05-10T02:31:52;12.80;99.90
59146;DHT22;44928;53.074;6.646;2023-05-10T02:34:21;12.80;99.90
59146;DHT22;44928;53.074;6.646;2023-05-10T02:36:47;12.80;99.90
59146;DHT22;44928;53.074;6.646;2023-05-10T02:39:14;12.80;99.90
59146;DHT22;44928;53.074;6.646;2023-05-10T02:41:41;12.80;99.90
59146;DHT22;44928;53.074;6.646;2023-05-10T02:44:08;12.80;99.90
59146;DHT22;44928;53.074;6.646;2023-05-10T02:46:34;12.80;99.90
59146;DHT22;44928;53.074;6.646;2023-05-10T02:49:01;12.80;99.90
59146;DHT22;44928;53.074;6.646;2023-05-10T02:51:31;12.80;99.90
59146;DHT22;44928;53.074;6.646;2023-05-10T02:54:07;12.80;99.90
59146;DHT22;44928;53.074;6.646;2023-05-10T02:56:36;12.80;99.90
59146;DHT22;44928;53.074;6.646;2023-05-10T02:59:05;12.80;99.90
59146;DHT22;44928;53.074;6.646;2023-05-10T03:01:31;12.70;99.90
59146;DHT22;44928;53.074;6.646;2023-05-10T03:03:56;12.80;99.90
59146;DHT22;44928;53.074;6.646;2023-05-10T03:06:22;12.80;99.90
59146;DHT22;44928;53.074;6.646;2023-05-10T03:08:48;12.80;99.90
59146;DHT22;44928;53.074;6.646;2023-05-10T03:16:45;12.70;99.90
59146;DHT22;44928;53.074;6.646;2023-05-10T03:19:17;12.70;99.90
59146;DHT22;44928;53.074;6.646;2023-05-10T03:21:49;12.70;99.90
59146;DHT22;44928;53.074;6.646;2023-05-10T03:24:17;12.60;99.90
59146;DHT22;44928;53.074;6.646;2023-05-10T03:26:45;12.70;99.90
59146;DHT22;44928;53.074;6.646;2023-05-10T03:29:13;12.70;99.90
59146;DHT22;44928;53.074;6.646;2023-05-10T03:31:39;12.70;99.90
59146;DHT22;44928;53.074;6.646;2023-05-10T03:34:05;12.70;99.90
59146;DHT22;44928;53.074;6.646;2023-05-10T03:36:31;12.70;99.90
59146;DHT22;44928;53.074;6.646;2023-05-10T03:38:57;12.70;99.90
59146;DHT22;44928;53.074;6.646;2023-05-10T03:41:23;12.70;99.90
59146;DHT22;44928;53.074;6.646;2023-05-10T03:43:48;12.70;99.90
59146;DHT22;44928;53.074;6.646;2023-05-10T03:46:14;12.70;99.90
59146;DHT22;44928;53.074;6.646;2023-05-10T03:48:40;12.70;99.90
59146;DHT22;44928;53.074;6.646;2023-05-10T03:51:05;12.70;99.90
59146;DHT22;44928;53.074;6.646;2023-05-10T03:53:31;12.70;99.90
59146;DHT22;44928;53.074;6.646;2023-05-10T03:55:57;12.70;99.90
59146;DHT22;44928;53.074;6.646;2023-05-10T03:58:22;12.70;99.90
59146;DHT22;44928;53.074;6.646;2023-05-10T04:00:48;12.70;99.90
59146;DHT22;44928;53.074;6.646;2023-05-10T04:03:14;12.70;99.90
59146;DHT22;44928;53.074;6.646;2023-05-10T04:05:40;12.70;99.90
59146;DHT22;44928;53.074;6.646;2023-05-10T04:08:06;12.60;99.90
59146;DHT22;44928;53.074;6.646;2023-05-10T04:10:32;12.60;99.90
59146;DHT22;44928;53.074;6.646;2023-05-10T04:12:58;12.60;99.90
59146;DHT22;44928;53.074;6.646;2023-05-10T04:15:23;12.60;99.90
59146;DHT22;44928;53.074;6.646;2023-05-10T04:17:49;12.60;99.90
59146;DHT22;44928;53.074;6.646;2023-05-10T04:20:16;12.70;99.90
59146;DHT22;44928;53.074;6.646;2023-05-10T04:22:41;12.70;99.90
59146;DHT22;44928;53.074;6.646;2023-05-10T04:25:07;12.70;99.90
59146;DHT22;44928;53.074;6.646;2023-05-10T04:27:33;12.70;99.90
59146;DHT22;44928;53.074;6.646;2023-05-10T04:29:59;12.70;99.90
59146;DHT22;44928;53.074;6.646;2023-05-10T04:32:25;12.60;99.90
59146;DHT22;44928;53.074;6.646;2023-05-10T04:34:51;12.60;99.90
59146;DHT22;44928;53.074;6.646;2023-05-10T04:37:18;12.70;99.90
59146;DHT22;44928;53.074;6.646;2023-05-10T04:39:44;12.60;99.90
59146;DHT22;44928;53.074;6.646;2023-05-10T04:42:10;12.60;99.90
59146;DHT22;44928;53.074;6.646;2023-05-10T04:44:36;12.70;99.90
59146;DHT22;44928;53.074;6.646;2023-05-10T04:47:02;12.70;99.90
59146;DHT22;44928;53.074;6.646;2023-05-10T04:49:29;12.70;99.90
59146;DHT22;44928;53.074;6.646;2023-05-10T04:51:55;12.60;99.90
59146;DHT22;44928;53.074;6.646;2023-05-10T04:54:21;12.60;99.90
59146;DHT22;44928;53.074;6.646;2023-05-10T04:56:46;12.60;99.90
59146;DHT22;44928;53.074;6.646;2023-05-10T04:59:12;12.60;99.90
59146;DHT22;44928;53.074;6.646;2023-05-10T05:01:38;12.60;99.90
59146;DHT22;44928;53.074;6.646;2023-05-10T05:04:04;12.60;99.90
59146;DHT22;44928;53.074;6.646;2023-05-10T05:06:29;12.60;99.90
59146;DHT22;44928;53.074;6.646;2023-05-10T05:08:55;12.60;99.90
59146;DHT22;44928;53.074;6.646;2023-05-10T05:11:21;12.60;99.90
59146;DHT22;44928;53.074;6.646;2023-05-10T05:13:46;12.60;99.90
59146;DHT22;44928;53.074;6.646;2023-05-10T05:16:12;12.60;99.90
59146;DHT22;44928;53.074;6.646;2023-05-10T05:18:38;12.60;99.90
59146;DHT22;44928;53.074;6.646;2023-05-10T05:21:16;12.60;99.90
59146;DHT22;44928;53.074;6.646;2023-05-10T05:23:43;12.60;99.90
59146;DHT22;44928;53.074;6.646;2023-05-10T05:26:09;12.60;99.90
59146;DHT22;44928;53.074;6.646;2023-05-10T05:28:35;12.60;99.90
59146;DHT22;44928;53.074;6.646;2023-05-10T05:31:06;12.60;99.90
59146;DHT22;44928;53.074;6.646;2023-05-10T05:33:33;12.60;99.90
59146;DHT22;44928;53.074;6.646;2023-05-10T05:36:02;12.60;99.90
59146;DHT22;44928;53.074;6.646;2023-05-10T05:38:28;12.60;99.90
59146;DHT22;44928;53.074;6.646;2023-05-10T05:40:54;12.60;99.90
59146;DHT22;44928;53.074;6.646;2023-05-10T05:43:20;12.60;99.90
59146;DHT22;44928;53.074;6.646;2023-05-10T05:45:46;12.60;99.90
59146;DHT22;44928;53.074;6.646;2023-05-10T05:48:12;12.50;99.90
59146;DHT22;44928;53.074;6.646;2023-05-10T05:50:37;12.60;99.90
59146;DHT22;44928;53.074;6.646;2023-05-10T05:53:03;12.60;99.90
59146;DHT22;44928;53.074;6.646;2023-05-10T05:55:29;12.60;99.90
59146;DHT22;44928;53.074;6.646;2023-05-10T05:57:57;12.60;99.90
59146;DHT22;44928;53.074;6.646;2023-05-10T06:00:23;12.50;99.90
59146;DHT22;44928;53.074;6.646;2023-05-10T06:02:48;12.50;99.90
59146;DHT22;44928;53.074;6.646;2023-05-10T06:05:14;12.50;99.90
59146;DHT22;44928;53.074;6.646;2023-05-10T06:07:40;12.50;99.90
59146;DHT22;44928;53.074;6.646;2023-05-10T06:10:09;12.50;99.90
59146;DHT22;44928;53.074;6.646;2023-05-10T06:12:35;12.50;99.90
59146;DHT22;44928;53.074;6.646;2023-05-10T06:15:01;12.50;99.90
59146;DHT22;44928;53.074;6.646;2023-05-10T06:17:27;12.50;99.90
59146;DHT22;44928;53.074;6.646;2023-05-10T06:19:54;12.60;99.90
59146;DHT22;44928;53.074;6.646;2023-05-10T06:22:19;12.50;99.90
59146;DHT22;44928;53.074;6.646;2023-05-10T06:24:47;12.50;99.90
59146;DHT22;44928;53.074;6.646;2023-05-10T06:27:12;12.50;99.90
59146;DHT22;44928;53.074;6.646;2023-05-10T06:29:38;12.50;99.90
59146;DHT22;44928;53.074;6.646;2023-05-10T06:32:04;12.50;99.90
59146;DHT22;44928;53.074;6.646;2023-05-10T06:34:30;12.50;99.90
59146;DHT22;44928;53.074;6.646;2023-05-10T06:36:57;12.50;99.90
59146;DHT22;44928;53.074;6.646;2023-05-10T06:39:22;12.50;99.90
59146;DHT22;44928;53.074;6.646;2023-05-10T06:41:48;12.50;99.90
59146;DHT22;44928;53.074;6.646;2023-05-10T06:44:14;12.50;99.90
59146;DHT22;44928;53.074;6.646;2023-05-10T06:46:40;12.50;99.90
59146;DHT22;44928;53.074;6.646;2023-05-10T06:49:06;12.50;99.90
59146;DHT22;44928;53.074;6.646;2023-05-10T06:51:32;12.50;99.90
59146;DHT22;44928;53.074;6.646;2023-05-10T06:53:58;12.50;99.90
59146;DHT22;44928;53.074;6.646;2023-05-10T06:56:24;12.50;99.90
59146;DHT22;44928;53.074;6.646;2023-05-10T06:58:49;12.50;99.90
59146;DHT22;44928;53.074;6.646;2023-05-10T07:01:15;12.50;99.90
59146;DHT22;44928;53.074;6.646;2023-05-10T07:03:41;12.40;99.90
59146;DHT22;44928;53.074;6.646;2023-05-10T07:06:07;12.50;99.90
59146;DHT22;44928;53.074;6.646;2023-05-10T07:08:34;12.50;99.90
59146;DHT22;44928;53.074;6.646;2023-05-10T07:11:03;12.40;99.90
59146;DHT22;44928;53.074;6.646;2023-05-10T07:13:32;12.50;99.90
59146;DHT22;44928;53.074;6.646;2023-05-10T07:15:59;12.40;99.90
59146;DHT22;44928;53.074;6.646;2023-05-10T07:18:25;12.40;99.90
59146;DHT22;44928;53.074;6.646;2023-05-10T07:20:51;12.40;99.90
59146;DHT22;44928;53.074;6.646;2023-05-10T07:23:16;12.40;99.90
59146;DHT22;44928;53.074;6.646;2023-05-10T07:25:47;12.50;99.90
59146;DHT22;44928;53.074;6.646;2023-05-10T07:28:13;12.50;99.90
59146;DHT22;44928;53.074;6.646;2023-05-10T07:30:39;12.50;99.90
59146;DHT22;44928;53.074;6.646;2023-05-10T07:33:05;12.50;99.90
59146;DHT22;44928;53.074;6.646;2023-05-10T07:35:31;12.50;99.90
59146;DHT22;44928;53.074;6.646;2023-05-10T07:37:57;12.50;99.90
59146;DHT22;44928;53.074;6.646;2023-05-10T07:40:22;12.50;99.90
59146;DHT22;44928;53.074;6.646;2023-05-10T07:42:48;12.60;99.90
59146;DHT22;44928;53.074;6.646;2023-05-10T07:45:14;12.60;99.90
59146;DHT22;44928;53.074;6.646;2023-05-10T07:47:39;12.60;99.90
59146;DHT22;44928;53.074;6.646;2023-05-10T07:50:06;12.70;99.90
59146;DHT22;44928;53.074;6.646;2023-05-10T07:52:32;12.70;99.90
59146;DHT22;44928;53.074;6.646;2023-05-10T07:54:57;12.70;99.90
59146;DHT22;44928;53.074;6.646;2023-05-10T07:57:23;12.70;99.90
59146;DHT22;44928;53.074;6.646;2023-05-10T07:59:49;12.70;99.90
59146;DHT22;44928;53.074;6.646;2023-05-10T08:02:14;12.70;99.90
59146;DHT22;44928;53.074;6.646;2023-05-10T08:04:40;12.70;99.90
59146;DHT22;44928;53.074;6.646;2023-05-10T08:07:06;12.70;99.90
59146;DHT22;44928;53.074;6.646;2023-05-10T08:09:33;12.70;99.90
59146;DHT22;44928;53.074;6.646;2023-05-10T08:11:58;12.70;99.90
59146;DHT22;44928;53.074;6.646;2023-05-10T08:14:27;12.70;99.90
59146;DHT22;44928;53.074;6.646;2023-05-10T08:16:52;12.70;99.90
59146;DHT22;44928;53.074;6.646;2023-05-10T08:19:18;12.70;99.90
59146;DHT22;44928;53.074;6.646;2023-05-10T08:21:45;12.70;99.90
59146;DHT22;44928;53.074;6.646;2023-05-10T08:24:11;12.70;99.90
59146;DHT22;44928;53.074;6.646;2023-05-10T08:26:37;12.70;99.90
59146;DHT22;44928;53.074;6.646;2023-05-10T08:29:02;12.70;99.90
59146;DHT22;44928;53.074;6.646;2023-05-10T08:31:28;12.70;99.90
59146;DHT22;44928;53.074;6.646;2023-05-10T08:33:54;12.70;99.90
59146;DHT22;44928;53.074;6.646;2023-05-10T08:36:19;12.70;99.90
59146;DHT22;44928;53.074;6.646;2023-05-10T08:38:49;12.70;99.90
59146;DHT22;44928;53.074;6.646;2023-05-10T08:41:15;12.70;99.90
59146;DHT22;44928;53.074;6.646;2023-05-10T08:43:41;12.70;99.90
59146;DHT22;44928;53.074;6.646;2023-05-10T08:46:15;12.70;99.90
59146;DHT22;44928;53.074;6.646;2023-05-10T08:48:42;12.60;99.90
59146;DHT22;44928;53.074;6.646;2023-05-10T08:51:09;12.60;99.90
59146;DHT22;44928;53.074;6.646;2023-05-10T08:53:36;12.70;99.90
59146;DHT22;44928;53.074;6.646;2023-05-10T08:56:03;12.70;99.90
59146;DHT22;44928;53.074;6.646;2023-05-10T08:58:29;12.70;99.90
59146;DHT22;44928;53.074;6.646;2023-05-10T09:00:55;12.60;99.90
59146;DHT22;44928;53.074;6.646;2023-05-10T09:03:21;12.70;99.90
59146;DHT22;44928;53.074;6.646;2023-05-10T09:05:48;12.70;99.90
59146;DHT22;44928;53.074;6.646;2023-05-10T09:08:14;12.80;99.90
59146;DHT22;44928;53.074;6.646;2023-05-10T09:10:45;12.80;99.90
59146;DHT22;44928;53.074;6.646;2023-05-10T09:13:14;12.90;99.90
59146;DHT22;44928;53.074;6.646;2023-05-10T09:15:40;12.90;99.90
59146;DHT22;44928;53.074;6.646;2023-05-10T09:18:06;12.90;99.90
59146;DHT22;44928;53.074;6.646;2023-05-10T09:20:32;12.90;99.90
59146;DHT22;44928;53.074;6.646;2023-05-10T09:22:58;12.90;99.90
59146;DHT22;44928;53.074;6.646;2023-05-10T09:25:23;13.00;99.90
59146;DHT22;44928;53.074;6.646;2023-05-10T09:27:49;13.00;99.90
59146;DHT22;44928;53.074;6.646;2023-05-10T09:30:26;13.00;99.90
59146;DHT22;44928;53.074;6.646;2023-05-10T09:32:53;13.10;99.90
59146;DHT22;44928;53.074;6.646;2023-05-10T09:35:22;13.10;99.90
59146;DHT22;44928;53.074;6.646;2023-05-10T09:37:51;13.10;99.90
59146;DHT22;44928;53.074;6.646;2023-05-10T09:40:20;13.20;99.90
59146;DHT22;44928;53.074;6.646;2023-05-10T09:42:53;13.30;99.90
59146;DHT22;44928;53.074;6.646;2023-05-10T09:45:21;13.40;99.90
59146;DHT22;44928;53.074;6.646;2023-05-10T09:47:47;13.50;99.90
59146;DHT22;44928;53.074;6.646;2023-05-10T09:50:13;13.60;99.90
59146;DHT22;44928;53.074;6.646;2023-05-10T09:52:55;13.70;99.90
59146;DHT22;44928;53.074;6.646;2023-05-10T09:55:24;13.70;99.90
59146;DHT22;44928;53.074;6.646;2023-05-10T09:57:59;13.70;99.90
59146;DHT22;44928;53.074;6.646;2023-05-10T10:00:25;13.70;99.90
59146;DHT22;44928;53.074;6.646;2023-05-10T10:02:59;13.70;99.90
59146;DHT22;44928;53.074;6.646;2023-05-10T10:05:32;13.70;99.90
59146;DHT22;44928;53.074;6.646;2023-05-10T10:07:59;13.70;99.90
59146;DHT22;44928;53.074;6.646;2023-05-10T10:10:26;13.70;99.90
59146;DHT22;44928;53.074;6.646;2023-05-10T10:12:52;13.80;99.90
59146;DHT22;44928;53.074;6.646;2023-05-10T10:15:19;13.80;99.90
59146;DHT22;44928;53.074;6.646;2023-05-10T10:17:46;13.80;99.90
59146;DHT22;44928;53.074;6.646;2023-05-10T10:20:13;13.80;99.90
59146;DHT22;44928;53.074;6.646;2023-05-10T10:22:39;13.80;99.90
59146;DHT22;44928;53.074;6.646;2023-05-10T10:25:05;13.90;99.90
59146;DHT22;44928;53.074;6.646;2023-05-10T10:33:36;14.00;99.90
59146;DHT22;44928;53.074;6.646;2023-05-10T10:36:04;14.00;99.90
59146;DHT22;44928;53.074;6.646;2023-05-10T10:44:23;14.00;99.90
59146;DHT22;44928;53.074;6.646;2023-05-10T10:52:25;14.10;99.90
59146;DHT22;44928;53.074;6.646;2023-05-10T10:55:13;14.20;99.90
59146;DHT22;44928;53.074;6.646;2023-05-10T10:57:45;14.20;99.90
59146;DHT22;44928;53.074;6.646;2023-05-10T11:05:41;14.10;99.90
59146;DHT22;44928;53.074;6.646;2023-05-10T11:08:08;14.10;99.90
59146;DHT22;44928;53.074;6.646;2023-05-10T11:10:35;14.10;99.90
59146;DHT22;44928;53.074;6.646;2023-05-10T11:13:02;14.20;99.90
59146;DHT22;44928;53.074;6.646;2023-05-10T11:15:31;14.20;99.90
59146;DHT22;44928;53.074;6.646;2023-05-10T11:17:58;14.20;99.90
59146;DHT22;44928;53.074;6.646;2023-05-10T11:20:27;14.20;99.90
59146;DHT22;44928;53.074;6.646;2023-05-10T11:23:10;14.20;99.90
59146;DHT22;44928;53.074;6.646;2023-05-10T11:25:44;14.30;99.90
59146;DHT22;44928;53.074;6.646;2023-05-10T11:28:11;14.20;99.90
59146;DHT22;44928;53.074;6.646;2023-05-10T11:30:41;14.20;99.90
59146;DHT22;44928;53.074;6.646;2023-05-10T11:33:09;14.30;99.90
59146;DHT22;44928;53.074;6.646;2023-05-10T11:35:39;14.30;99.90
59146;DHT22;44928;53.074;6.646;2023-05-10T11:38:06;14.30;99.90
59146;DHT22;44928;53.074;6.646;2023-05-10T11:40:32;14.30;99.90
59146;DHT22;44928;53.074;6.646;2023-05-10T11:42:58;14.30;99.90
59146;DHT22;44928;53.074;6.646;2023-05-10T11:45:24;14.30;99.90
59146;DHT22;44928;53.074;6.646;2023-05-10T11:47:50;14.30;99.90
59146;DHT22;44928;53.074;6.646;2023-05-10T11:50:17;14.30;99.90
59146;DHT22;44928;53.074;6.646;2023-05-10T11:52:43;14.30;99.90
59146;DHT22;44928;53.074;6.646;2023-05-10T11:55:09;14.30;99.90
59146;DHT22;44928;53.074;6.646;2023-05-10T11:57:35;14.30;99.90
59146;DHT22;44928;53.074;6.646;2023-05-10T12:00:01;14.30;99.90
59146;DHT22;44928;53.074;6.646;2023-05-10T12:02:29;14.30;99.90
59146;DHT22;44928;53.074;6.646;2023-05-10T12:04:55;14.30;99.90
59146;DHT22;44928;53.074;6.646;2023-05-10T12:07:22;14.40;99.90
59146;DHT22;44928;53.074;6.646;2023-05-10T12:10:07;14.40;99.90
59146;DHT22;44928;53.074;6.646;2023-05-10T12:12:46;14.50;99.90
59146;DHT22;44928;53.074;6.646;2023-05-10T12:15:24;14.50;99.90
59146;DHT22;44928;53.074;6.646;2023-05-10T12:17:50;14.60;99.90
59146;DHT22;44928;53.074;6.646;2023-05-10T12:20:17;14.60;99.90
59146;DHT22;44928;53.074;6.646;2023-05-10T12:22:49;14.70;99.90
59146;DHT22;44928;53.074;6.646;2023-05-10T12:25:15;14.70;99.90
59146;DHT22;44928;53.074;6.646;2023-05-10T12:27:51;14.60;99.90
59146;DHT22;44928;53.074;6.646;2023-05-10T12:30:36;14.60;99.90
59146;DHT22;44928;53.074;6.646;2023-05-10T12:33:12;14.50;99.90
59146;DHT22;44928;53.074;6.646;2023-05-10T12:35:50;14.50;99.90
59146;DHT22;44928;53.074;6.646;2023-05-10T12:38:32;14.40;99.90
59146;DHT22;44928;53.074;6.646;2023-05-10T12:41:00;14.50;99.90
59146;DHT22;44928;53.074;6.646;2023-05-10T12:43:25;14.40;99.90
59146;DHT22;44928;53.074;6.646;2023-05-10T12:45:51;14.50;99.90
59146;DHT22;44928;53.074;6.646;2023-05-10T12:48:17;14.50;99.90
59146;DHT22;44928;53.074;6.646;2023-05-10T12:50:43;14.50;99.90
59146;DHT22;44928;53.074;6.646;2023-05-10T12:53:08;14.50;99.90
59146;DHT22;44928;53.074;6.646;2023-05-10T12:55:34;14.60;99.90
59146;DHT22;44928;53.074;6.646;2023-05-10T12:58:00;14.60;99.90
59146;DHT22;44928;53.074;6.646;2023-05-10T13:00:26;14.60;99.90
59146;DHT22;44928;53.074;6.646;2023-05-10T13:02:52;14.60;99.90
59146;DHT22;44928;53.074;6.646;2023-05-10T13:05:18;14.60;99.90
59146;DHT22;44928;53.074;6.646;2023-05-10T13:07:44;14.70;99.90
59146;DHT22;44928;53.074;6.646;2023-05-10T13:10:10;14.70;99.90
59146;DHT22;44928;53.074;6.646;2023-05-10T13:12:36;14.70;99.90
59146;DHT22;44928;53.074;6.646;2023-05-10T13:15:02;14.80;99.90
59146;DHT22;44928;53.074;6.646;2023-05-10T13:17:28;14.80;99.90
59146;DHT22;44928;53.074;6.646;2023-05-10T13:19:54;14.80;99.90
59146;DHT22;44928;53.074;6.646;2023-05-10T13:22:20;14.80;99.90
59146;DHT22;44928;53.074;6.646;2023-05-10T13:24:46;14.80;99.90
59146;DHT22;44928;53.074;6.646;2023-05-10T13:27:11;14.80;99.90
59146;DHT22;44928;53.074;6.646;2023-05-10T13:29:37;14.80;99.90
59146;DHT22;44928;53.074;6.646;2023-05-10T13:32:03;14.80;99.90
59146;DHT22;44928;53.074;6.646;2023-05-10T13:34:29;14.80;99.90
59146;DHT22;44928;53.074;6.646;2023-05-10T13:36:54;14.80;99.90
59146;DHT22;44928;53.074;6.646;2023-05-10T13:39:22;14.90;99.90
59146;DHT22;44928;53.074;6.646;2023-05-10T13:41:48;14.90;99.90
59146;DHT22;44928;53.074;6.646;2023-05-10T13:44:14;15.00;99.90
59146;DHT22;44928;53.074;6.646;2023-05-10T13:46:41;15.00;99.90
59146;DHT22;44928;53.074;6.646;2023-05-10T13:49:09;15.10;99.90
59146;DHT22;44928;53.074;6.646;2023-05-10T13:51:34;15.00;99.90
59146;DHT22;44928;53.074;6.646;2023-05-10T13:54:04;15.10;99.90
59146;DHT22;44928;53.074;6.646;2023-05-10T13:56:30;15.10;99.90
59146;DHT22;44928;53.074;6.646;2023-05-10T13:58:56;15.10;99.90
59146;DHT22;44928;53.074;6.646;2023-05-10T14:01:22;15.10;99.90
59146;DHT22;44928;53.074;6.646;2023-05-10T14:03:48;15.10;99.90
59146;DHT22;44928;53.074;6.646;2023-05-10T14:06:14;15.10;99.90
59146;DHT22;44928;53.074;6.646;2023-05-10T14:08:40;15.00;99.90
59146;DHT22;44928;53.074;6.646;2023-05-10T14:11:05;15.00;99.90
59146;DHT22;44928;53.074;6.646;2023-05-10T14:13:31;14.90;99.90
59146;DHT22;44928;53.074;6.646;2023-05-10T14:15:57;14.90;99.90
59146;DHT22;44928;53.074;6.646;2023-05-10T14:18:24;14.90;99.90
59146;DHT22;44928;53.074;6.646;2023-05-10T14:20:49;14.80;99.90
59146;DHT22;44928;53.074;6.646;2023-05-10T14:23:15;14.80;99.90
59146;DHT22;44928;53.074;6.646;2023-05-10T14:25:41;14.80;99.90
59146;DHT22;44928;53.074;6.646;2023-05-10T14:28:07;14.80;99.90
59146;DHT22;44928;53.074;6.646;2023-05-10T14:30:32;14.80;99.90
59146;DHT22;44928;53.074;6.646;2023-05-10T14:33:01;14.80;99.90
59146;DHT22;44928;53.074;6.646;2023-05-10T14:35:27;14.90;99.90
59146;DHT22;44928;53.074;6.646;2023-05-10T14:37:53;14.80;99.90
59146;DHT22;44928;53.074;6.646;2023-05-10T14:40:19;14.80;99.90
59146;DHT22;44928;53.074;6.646;2023-05-10T14:42:46;14.80;99.90
59146;DHT22;44928;53.074;6.646;2023-05-10T14:45:12;14.90;99.90
59146;DHT22;44928;53.074;6.646;2023-05-10T14:47:38;14.90;99.90
59146;DHT22;44928;53.074;6.646;2023-05-10T14:50:04;14.90;99.90
59146;DHT22;44928;53.074;6.646;2023-05-10T14:52:30;14.90;99.90
59146;DHT22;44928;53.074;6.646;2023-05-10T14:54:56;15.00;99.90
59146;DHT22;44928;53.074;6.646;2023-05-10T14:57:24;15.00;99.90
59146;DHT22;44928;53.074;6.646;2023-05-10T14:59:50;15.00;99.90
59146;DHT22;44928;53.074;6.646;2023-05-10T15:02:15;15.10;99.90
59146;DHT22;44928;53.074;6.646;2023-05-10T15:04:41;15.10;99.90
59146;DHT22;44928;53.074;6.646;2023-05-10T15:07:07;15.10;99.90
59146;DHT22;44928;53.074;6.646;2023-05-10T15:09:33;15.20;99.90
59146;DHT22;44928;53.074;6.646;2023-05-10T15:11:58;15.20;99.90
59146;DHT22;44928;53.074;6.646;2023-05-10T15:14:24;15.20;99.90
59146;DHT22;44928;53.074;6.646;2023-05-10T15:16:50;15.30;99.90
59146;DHT22;44928;53.074;6.646;2023-05-10T15:19:15;15.30;99.90
59146;DHT22;44928;53.074;6.646;2023-05-10T15:21:41;15.30;99.90
59146;DHT22;44928;53.074;6.646;2023-05-10T15:24:09;15.40;99.90
59146;DHT22;44928;53.074;6.646;2023-05-10T15:26:35;15.40;99.90
59146;DHT22;44928;53.074;6.646;2023-05-10T15:29:00;15.40;99.90
59146;DHT22;44928;53.074;6.646;2023-05-10T15:31:26;15.50;99.90
59146;DHT22;44928;53.074;6.646;2023-05-10T15:33:57;15.50;99.90
59146;DHT22;44928;53.074;6.646;2023-05-10T15:36:24;15.50;99.90
59146;DHT22;44928;53.074;6.646;2023-05-10T15:38:50;15.50;99.90
59146;DHT22;44928;53.074;6.646;2023-05-10T15:41:15;15.50;99.90
59146;DHT22;44928;53.074;6.646;2023-05-10T15:43:41;15.50;99.90
59146;DHT22;44928;53.074;6.646;2023-05-10T15:46:07;15.40;99.90
59146;DHT22;44928;53.074;6.646;2023-05-10T15:48:33;15.40;99.90
59146;DHT22;44928;53.074;6.646;2023-05-10T15:50:58;15.40;99.90
59146;DHT22;44928;53.074;6.646;2023-05-10T15:53:24;15.40;99.90
59146;DHT22;44928;53.074;6.646;2023-05-10T15:55:50;15.40;99.90
59146;DHT22;44928;53.074;6.646;2023-05-10T15:58:16;15.40;99.90
59146;DHT22;44928;53.074;6.646;2023-05-10T16:00:41;15.40;99.90
59146;DHT22;44928;53.074;6.646;2023-05-10T16:03:07;15.40;99.90
59146;DHT22;44928;53.074;6.646;2023-05-10T16:05:33;15.30;99.90
59146;DHT22;44928;53.074;6.646;2023-05-10T16:07:59;15.30;99.90
59146;DHT22;44928;53.074;6.646;2023-05-10T16:10:26;15.30;99.90
59146;DHT22;44928;53.074;6.646;2023-05-10T16:12:53;15.30;99.90
59146;DHT22;44928;53.074;6.646;2023-05-10T16:15:19;15.30;99.90
59146;DHT22;44928;53.074;6.646;2023-05-10T16:17:46;15.30;99.90
59146;DHT22;44928;53.074;6.646;2023-05-10T16:20:12;15.20;99.90
59146;DHT22;44928;53.074;6.646;2023-05-10T16:22:37;15.30;99.90
59146;DHT22;44928;53.074;6.646;2023-05-10T16:25:03;15.20;99.90
59146;DHT22;44928;53.074;6.646;2023-05-10T16:27:29;15.20;99.90
59146;DHT22;44928;53.074;6.646;2023-05-10T16:29:58;15.20;99.90
59146;DHT22;44928;53.074;6.646;2023-05-10T16:32:24;15.20;99.90
59146;DHT22;44928;53.074;6.646;2023-05-10T16:34:49;15.20;99.90